createdAt,value
2023-04-19T00:00:58.559Z,1004.11
2023-04-19T00:01:58.556Z,1004.12
2023-04-19T00:02:58.844Z,1004.13
2023-04-19T00:03:58.663Z,1004.00
2023-04-19T00:04:58.611Z,1004.00
2023-04-19T00:05:58.667Z,1004.03
2023-04-19T00:06:58.625Z,1004.08
2023-04-19T00:07:58.448Z,1004.06
2023-04-19T00:08:58.504Z,1004.05
2023-04-19T00:09:58.665Z,1004.00
2023-04-19T00:10:58.457Z,1004.01
2023-04-19T00:11:58.425Z,1003.92
2023-04-19T00:12:58.412Z,1003.95
2023-04-19T00:13:58.359Z,1003.89
2023-04-19T00:14:58.386Z,1003.97
2023-04-19T00:15:58.376Z,1003.93
2023-04-19T00:16:58.512Z,1004.00
2023-04-19T00:17:58.446Z,1003.96
2023-04-19T00:18:58.362Z,1003.88
2023-04-19T00:19:58.334Z,1003.89
2023-04-19T00:20:58.331Z,1003.87
2023-04-19T00:21:58.372Z,1003.86
2023-04-19T00:22:58.360Z,1003.88
2023-04-19T00:23:58.307Z,1003.92
2023-04-19T00:24:58.265Z,1003.85
2023-04-19T00:25:58.314Z,1003.90
2023-04-19T00:26:58.266Z,1003.91
2023-04-19T00:27:58.280Z,1003.88
2023-04-19T00:28:58.259Z,1003.87
2023-04-19T00:29:58.270Z,1003.88
2023-04-19T00:30:58.357Z,1003.81
2023-04-19T00:31:58.270Z,1003.88
2023-04-19T00:32:58.316Z,1003.84
2023-04-19T00:33:58.209Z,1003.83
2023-04-19T00:34:58.178Z,1003.80
2023-04-19T00:35:58.163Z,1003.86
2023-04-19T00:36:58.180Z,1003.77
2023-04-19T00:37:58.229Z,1003.79
2023-04-19T00:38:58.220Z,1003.78
2023-04-19T00:39:58.183Z,1003.84
2023-04-19T00:40:58.224Z,1003.83
2023-04-19T00:41:58.209Z,1003.84
2023-04-19T00:42:58.211Z,1003.80
2023-04-19T00:43:58.143Z,1003.84
2023-04-19T00:44:58.862Z,1003.80
2023-04-19T00:45:58.119Z,1003.80
2023-04-19T00:46:58.155Z,1003.80
2023-04-19T00:47:58.077Z,1003.72
2023-04-19T00:48:58.061Z,1003.82
2023-04-19T00:49:58.946Z,1003.78
2023-04-19T00:50:58.053Z,1003.82
2023-04-19T00:51:58.041Z,1003.85
2023-04-19T00:52:58.006Z,1003.81
2023-04-19T00:53:58.150Z,1003.82
2023-04-19T00:54:57.992Z,1003.79
2023-04-19T00:55:58.000Z,1003.77
2023-04-19T00:56:57.987Z,1003.75
2023-04-19T00:57:57.945Z,1003.70
2023-04-19T00:58:58.011Z,1003.84
2023-04-19T00:59:57.921Z,1003.75
2023-04-19T01:00:58.843Z,1003.67
2023-04-19T01:01:58.022Z,1003.64
2023-04-19T01:02:57.989Z,1003.67
2023-04-19T01:03:57.919Z,1003.68
2023-04-19T01:04:57.898Z,1003.66
2023-04-19T01:05:57.875Z,1003.73
2023-04-19T01:06:57.886Z,1003.71
2023-04-19T01:07:57.980Z,1003.70
2023-04-19T01:08:57.849Z,1003.65
2023-04-19T01:09:57.791Z,1003.56
2023-04-19T01:10:57.899Z,1003.61
2023-04-19T01:11:57.798Z,1003.61
2023-04-19T01:12:57.958Z,1003.57
2023-04-19T01:13:57.779Z,1003.59
2023-04-19T01:14:57.787Z,1003.56
2023-04-19T01:15:57.817Z,1003.55
2023-04-19T01:16:57.776Z,1003.52
2023-04-19T01:17:57.834Z,1003.54
2023-04-19T01:18:57.876Z,1003.54
2023-04-19T01:19:57.695Z,1003.53
2023-04-19T01:20:57.758Z,1003.60
2023-04-19T01:21:57.708Z,1003.59
2023-04-19T01:22:57.913Z,1003.59
2023-04-19T01:23:57.761Z,1003.64
2023-04-19T01:24:57.688Z,1003.61
2023-04-19T01:25:57.652Z,1003.60
2023-04-19T01:26:57.768Z,1003.58
2023-04-19T01:27:57.666Z,1003.48
2023-04-19T01:28:57.676Z,1003.53
2023-04-19T01:29:57.655Z,1003.53
2023-04-19T01:30:57.693Z,1003.54
2023-04-19T01:31:57.698Z,1003.53
2023-04-19T01:32:57.680Z,1003.51
2023-04-19T01:33:57.627Z,1003.50
2023-04-19T01:34:57.654Z,1003.51
2023-04-19T01:35:57.667Z,1003.51
2023-04-19T01:36:57.554Z,1003.51
2023-04-19T01:37:58.358Z,1003.53
2023-04-19T01:38:57.571Z,1003.51
2023-04-19T01:39:57.605Z,1003.54
2023-04-19T01:40:57.519Z,1003.51
2023-04-19T01:41:57.487Z,1003.53
2023-04-19T01:42:57.661Z,1003.47
2023-04-19T01:43:57.484Z,1003.43
2023-04-19T01:44:57.520Z,1003.51
2023-04-19T01:45:57.445Z,1003.41
2023-04-19T01:46:57.541Z,1003.44
2023-04-19T01:47:57.559Z,1003.48
2023-04-19T01:48:57.487Z,1003.53
2023-04-19T01:49:58.020Z,1003.48
2023-04-19T01:50:57.455Z,1003.48
2023-04-19T01:51:57.451Z,1003.51
2023-04-19T01:52:57.475Z,1003.48
2023-04-19T01:53:57.397Z,1003.51
2023-04-19T01:54:57.409Z,1003.52
2023-04-19T01:55:57.376Z,1003.51
2023-04-19T01:56:57.350Z,1003.50
2023-04-19T01:57:57.440Z,1003.51
2023-04-19T01:58:58.348Z,1003.49
2023-04-19T01:59:57.419Z,1003.55
2023-04-19T02:00:57.388Z,1003.53
2023-04-19T02:01:57.425Z,1003.49
2023-04-19T02:02:57.443Z,1003.51
2023-04-19T02:03:57.358Z,1003.50
2023-04-19T02:04:57.307Z,1003.48
2023-04-19T02:05:57.307Z,1003.46
2023-04-19T02:06:57.255Z,1003.48
2023-04-19T02:07:57.380Z,1003.50
2023-04-19T02:08:57.283Z,1003.47
2023-04-19T02:09:57.302Z,1003.46
2023-04-19T02:10:58.015Z,1003.48
2023-04-19T02:11:57.187Z,1003.43
2023-04-19T02:12:57.268Z,1003.35
2023-04-19T02:13:57.170Z,1003.42
2023-04-19T02:15:11.350Z,1003.37
2023-04-19T02:15:57.208Z,1003.37
2023-04-19T02:16:57.262Z,1003.38
2023-04-19T02:17:57.237Z,1003.39
2023-04-19T02:18:57.138Z,1003.43
2023-04-19T02:19:57.203Z,1003.43
2023-04-19T02:20:57.176Z,1003.39
2023-04-19T02:21:57.129Z,1003.40
2023-04-19T02:22:57.120Z,1003.49
2023-04-19T02:23:57.130Z,1003.44
2023-04-19T02:24:57.079Z,1003.38
2023-04-19T02:25:57.081Z,1003.37
2023-04-19T02:26:57.113Z,1003.42
2023-04-19T02:27:57.045Z,1003.40
2023-04-19T02:28:57.026Z,1003.35
2023-04-19T02:29:57.111Z,1003.40
2023-04-19T02:30:57.042Z,1003.40
2023-04-19T02:31:57.120Z,1003.45
2023-04-19T02:32:57.049Z,1003.44
2023-04-19T02:33:57.105Z,1003.43
2023-04-19T02:34:57.021Z,1003.32
2023-04-19T02:35:57.043Z,1003.38
2023-04-19T02:36:57.049Z,1003.41
2023-04-19T02:37:57.000Z,1003.38
2023-04-19T02:38:56.925Z,1003.31
2023-04-19T02:39:56.898Z,1003.34
2023-04-19T02:40:57.018Z,1003.30
2023-04-19T02:41:56.916Z,1003.30
2023-04-19T02:42:56.956Z,1003.30
2023-04-19T02:43:56.885Z,1003.31
2023-04-19T02:44:56.831Z,1003.27
2023-04-19T02:45:57.002Z,1003.31
2023-04-19T02:46:56.903Z,1003.34
2023-04-19T02:47:57.793Z,1003.33
2023-04-19T02:48:56.894Z,1003.30
2023-04-19T02:49:56.935Z,1003.30
2023-04-19T02:50:56.875Z,1003.25
2023-04-19T02:51:57.037Z,1003.29
2023-04-19T02:52:56.829Z,1003.34
2023-04-19T02:53:56.796Z,1003.31
2023-04-19T02:54:57.448Z,1003.31
2023-04-19T02:55:56.770Z,1003.27
2023-04-19T02:57:07.010Z,1003.26
2023-04-19T02:57:56.755Z,1003.37
2023-04-19T02:58:56.849Z,1003.34
2023-04-19T02:59:57.711Z,1003.33
2023-04-19T03:00:56.775Z,1003.38
2023-04-19T03:01:56.806Z,1003.38
2023-04-19T03:02:56.945Z,1003.35
2023-04-19T03:03:56.856Z,1003.31
2023-04-19T03:04:56.699Z,1003.31
2023-04-19T03:05:56.732Z,1003.28
2023-04-19T03:06:56.725Z,1003.26
2023-04-19T03:07:56.775Z,1003.29
2023-04-19T03:08:56.646Z,1003.25
2023-04-19T03:09:56.626Z,1003.27
2023-04-19T03:10:57.507Z,1003.24
2023-04-19T03:11:56.631Z,1003.23
2023-04-19T03:12:56.785Z,1003.21
2023-04-19T03:13:56.570Z,1003.18
2023-04-19T03:14:56.608Z,1003.17
2023-04-19T03:15:56.604Z,1003.17
2023-04-19T03:16:56.724Z,1003.09
2023-04-19T03:17:57.253Z,1003.15
2023-04-19T03:18:56.603Z,1003.23
2023-04-19T03:19:56.593Z,1003.15
2023-04-19T03:20:56.595Z,1003.18
2023-04-19T03:21:56.773Z,1003.21
2023-04-19T03:22:56.514Z,1003.19
2023-04-19T03:23:56.554Z,1003.20
2023-04-19T03:24:56.560Z,1003.21
2023-04-19T03:25:56.482Z,1003.26
2023-04-19T03:26:56.510Z,1003.19
2023-04-19T03:27:56.563Z,1003.19
2023-04-19T03:28:56.686Z,1003.27
2023-04-19T03:29:56.478Z,1003.23
2023-04-19T03:30:56.489Z,1003.28
2023-04-19T03:31:57.361Z,1003.23
2023-04-19T03:32:56.502Z,1003.19
2023-04-19T03:33:56.428Z,1003.24
2023-04-19T03:34:56.369Z,1003.19
2023-04-19T03:35:56.458Z,1003.25
2023-04-19T03:36:56.503Z,1003.19
2023-04-19T03:37:56.393Z,1003.18
2023-04-19T03:38:57.312Z,1003.19
2023-04-19T03:39:56.332Z,1003.12
2023-04-19T03:40:57.692Z,1003.12
2023-04-19T03:41:56.378Z,1003.22
2023-04-19T03:42:58.825Z,1003.23
2023-04-19T03:43:56.268Z,1003.16
2023-04-19T03:44:56.456Z,1003.18
2023-04-19T03:45:56.289Z,1003.13
2023-04-19T03:46:56.430Z,1003.16
2023-04-19T03:47:57.038Z,1003.13
2023-04-19T03:48:56.272Z,1003.17
2023-04-19T03:49:56.252Z,1003.17
2023-04-19T03:50:56.302Z,1003.13
2023-04-19T03:51:56.259Z,1003.15
2023-04-19T03:52:56.994Z,1003.16
2023-04-19T03:53:56.194Z,1003.15
2023-04-19T03:54:56.194Z,1003.05
2023-04-19T03:55:56.213Z,1003.18
2023-04-19T03:56:56.466Z,1003.14
2023-04-19T03:57:56.415Z,1003.17
2023-04-19T03:58:56.128Z,1003.08
2023-04-19T03:59:56.144Z,1003.11
2023-04-19T04:00:56.116Z,1003.15
2023-04-19T04:01:56.173Z,1003.14
2023-04-19T04:02:56.377Z,1003.16
2023-04-19T04:03:56.324Z,1003.18
2023-04-19T04:04:56.168Z,1003.10
2023-04-19T04:05:56.147Z,1003.17
2023-04-19T04:07:39.368Z,1003.19
2023-04-19T04:07:56.070Z,1003.15
2023-04-19T04:08:56.153Z,1003.20
2023-04-19T04:09:56.110Z,1003.23
2023-04-19T04:10:56.051Z,1003.22
2023-04-19T04:11:56.025Z,1003.19
2023-04-19T04:12:56.326Z,1003.15
2023-04-19T04:13:56.036Z,1003.27
2023-04-19T04:14:55.998Z,1003.25
2023-04-19T04:15:56.543Z,1003.28
2023-04-19T04:16:56.039Z,1003.29
2023-04-19T04:17:56.082Z,1003.31
2023-04-19T04:18:56.014Z,1003.26
2023-04-19T04:19:59.005Z,1003.28
2023-04-19T04:20:55.997Z,1003.38
2023-04-19T04:21:56.140Z,1003.37
2023-04-19T04:22:56.112Z,1003.37
2023-04-19T04:23:55.880Z,1003.37
2023-04-19T04:24:56.448Z,1003.30
2023-04-19T04:25:55.920Z,1003.43
2023-04-19T04:26:55.916Z,1003.42
2023-04-19T04:27:55.871Z,1003.42
2023-04-19T04:28:55.888Z,1003.37
2023-04-19T04:29:55.884Z,1003.37
2023-04-19T04:30:55.965Z,1003.35
2023-04-19T04:31:56.016Z,1003.34
2023-04-19T04:32:59.148Z,1003.36
2023-04-19T04:33:55.864Z,1003.35
2023-04-19T04:34:55.796Z,1003.30
2023-04-19T04:35:55.825Z,1003.40
2023-04-19T04:36:55.838Z,1003.41
2023-04-19T04:37:56.213Z,1003.38
2023-04-19T04:38:55.845Z,1003.39
2023-04-19T04:39:56.074Z,1003.38
2023-04-19T04:40:57.069Z,1003.37
2023-04-19T04:41:55.751Z,1003.36
2023-04-19T04:42:55.783Z,1003.32
2023-04-19T04:44:10.799Z,1003.36
2023-04-19T04:44:57.741Z,1003.42
2023-04-19T04:46:02.074Z,1003.43
2023-04-19T04:46:55.735Z,1003.38
2023-04-19T04:47:55.775Z,1003.40
2023-04-19T04:53:59.457Z,1003.42
2023-04-19T04:55:00.732Z,1003.51
2023-04-19T04:56:00.628Z,1003.48
2023-04-19T04:57:00.677Z,1003.50
2023-04-19T04:58:00.912Z,1003.44
2023-04-19T04:59:00.585Z,1003.45
2023-04-19T05:00:00.703Z,1003.43
2023-04-19T05:01:00.791Z,1003.50
2023-04-19T05:02:00.676Z,1003.44
2023-04-19T05:03:00.669Z,1003.49
2023-04-19T05:04:00.663Z,1003.47
2023-04-19T05:05:00.511Z,1003.45
2023-04-19T05:06:02.514Z,1003.49
2023-04-19T05:07:00.769Z,1003.49
2023-04-19T05:08:00.512Z,1003.47
2023-04-19T05:09:00.580Z,1003.49
2023-04-19T05:10:04.086Z,1003.48
2023-04-19T05:11:00.536Z,1003.52
2023-04-19T05:12:01.422Z,1003.49
2023-04-19T05:13:01.324Z,1003.50
2023-04-19T05:14:01.452Z,1003.55
2023-04-19T05:15:02.834Z,1003.53
2023-04-19T05:16:01.060Z,1003.57
2023-04-19T05:17:00.721Z,1003.56
2023-04-19T05:18:01.153Z,1003.60
2023-04-19T05:19:03.540Z,1003.62
2023-04-19T05:20:00.367Z,1003.60
2023-04-19T05:21:01.198Z,1003.62
2023-04-19T05:22:00.485Z,1003.63
2023-04-19T05:23:00.554Z,1003.62
2023-04-19T05:24:00.328Z,1003.55
2023-04-19T05:25:01.901Z,1003.61
2023-04-19T05:26:00.348Z,1003.50
2023-04-19T05:27:02.821Z,1003.59
2023-04-19T05:28:01.585Z,1003.59
2023-04-19T05:29:01.308Z,1003.60
2023-04-19T05:30:00.428Z,1003.59
2023-04-19T05:31:00.328Z,1003.61
2023-04-19T05:32:06.161Z,1003.60
2023-04-19T05:33:00.479Z,1003.59
2023-04-19T05:34:00.235Z,1003.65
2023-04-19T05:35:00.359Z,1003.59
2023-04-19T05:36:00.243Z,1003.64
2023-04-19T05:37:00.263Z,1003.63
2023-04-19T05:38:00.404Z,1003.71
2023-04-19T05:39:00.407Z,1003.69
2023-04-19T05:40:00.477Z,1003.64
2023-04-19T05:41:02.906Z,1003.67
2023-04-19T05:42:04.663Z,1003.71
2023-04-19T05:43:00.205Z,1003.72
2023-04-19T05:44:00.220Z,1003.68
2023-04-19T05:45:00.125Z,1003.62
2023-04-19T05:46:21.334Z,1003.70
2023-04-19T05:47:05.561Z,1003.59
2023-04-19T05:48:00.246Z,1003.66
2023-04-19T05:49:07.188Z,1003.60
2023-04-19T05:50:00.168Z,1003.66
2023-04-19T05:51:00.542Z,1003.62
2023-04-19T05:52:01.744Z,1003.74
2023-04-19T05:53:00.146Z,1003.65
2023-04-19T05:54:00.223Z,1003.65
2023-04-19T05:55:00.074Z,1003.56
2023-04-19T05:56:02.307Z,1003.58
2023-04-19T05:57:00.226Z,1003.60
2023-04-19T05:58:00.313Z,1003.54
2023-04-19T05:59:00.008Z,1003.57
2023-04-19T06:01:00.155Z,1003.55
2023-04-19T06:02:03.606Z,1003.48
2023-04-19T06:03:01.413Z,1003.46
2023-04-19T06:04:00.628Z,1003.49
2023-04-19T06:05:07.955Z,1003.51
2023-04-19T06:06:02.106Z,1003.50
2023-04-19T06:07:02.070Z,1003.52
2023-04-19T06:08:02.775Z,1003.51
2023-04-19T06:09:02.078Z,1003.47
2023-04-19T06:10:00.793Z,1003.47
2023-04-19T06:11:05.131Z,1003.46
2023-04-19T06:12:02.025Z,1003.48
2023-04-19T06:13:00.512Z,1003.51
2023-04-19T06:14:01.770Z,1003.47
2023-04-19T06:14:59.909Z,1003.55
2023-04-19T06:16:04.954Z,1003.46
2023-04-19T06:16:59.926Z,1003.55
2023-04-19T06:18:01.414Z,1003.49
2023-04-19T06:32:39.255Z,1003.58
2023-04-19T06:33:39.021Z,1003.55
2023-04-19T06:34:39.113Z,1003.51
2023-04-19T06:35:40.283Z,1003.54
2023-04-19T06:36:40.105Z,1003.55
2023-04-19T06:37:40.130Z,1003.50
2023-04-19T06:38:40.520Z,1003.59
2023-04-19T06:39:40.183Z,1003.53
2023-04-19T06:40:40.078Z,1003.53
2023-04-19T06:41:40.083Z,1003.47
2023-04-19T06:42:40.085Z,1003.49
2023-04-19T06:43:40.239Z,1003.38
2023-04-19T06:44:40.061Z,1003.43
2023-04-19T06:45:40.751Z,1003.38
2023-04-19T06:46:40.034Z,1003.43
2023-04-19T06:47:40.193Z,1003.43
2023-04-19T06:48:40.811Z,1003.41
2023-04-19T06:49:40.085Z,1003.38
2023-04-19T06:50:40.003Z,1003.40
2023-04-19T06:51:40.040Z,1003.43
2023-04-19T06:52:40.261Z,1003.40
2023-04-19T06:53:40.045Z,1003.37
2023-04-19T06:54:40.115Z,1003.38
2023-04-19T06:55:39.980Z,1003.40
2023-04-19T06:56:42.086Z,1003.37
2023-04-19T06:59:47.877Z,1003.51
2023-04-19T07:00:48.335Z,1003.50
2023-04-19T07:01:48.047Z,1003.49
2023-04-19T07:02:48.010Z,1003.51
2023-04-19T07:03:48.050Z,1003.52
2023-04-19T07:04:49.588Z,1003.57
2023-04-19T07:06:00.107Z,1003.54
2023-04-19T07:06:54.657Z,1003.53
2023-04-19T07:07:52.007Z,1003.46
2023-04-19T07:08:50.493Z,1003.51
2023-04-19T07:09:49.938Z,1003.55
2023-04-19T07:10:48.981Z,1003.57
2023-04-19T07:11:49.199Z,1003.55
2023-04-19T07:12:48.985Z,1003.53
2023-04-19T07:13:49.333Z,1003.48
2023-04-19T07:14:51.464Z,1003.53
2023-04-19T07:15:49.076Z,1003.51
2023-04-19T07:16:50.195Z,1003.49
2023-04-19T07:17:48.991Z,1003.39
2023-04-19T07:18:49.187Z,1003.52
2023-04-19T07:19:49.015Z,1003.40
2023-04-19T07:20:49.029Z,1003.34
2023-04-19T07:21:49.016Z,1003.39
2023-04-19T07:22:48.972Z,1003.31
2023-04-19T07:23:48.862Z,1003.39
2023-04-19T07:24:49.020Z,1003.40
2023-04-19T07:25:48.821Z,1003.41
2023-04-19T07:26:49.348Z,1003.34
2023-04-19T07:27:48.811Z,1003.38
2023-04-19T07:28:48.932Z,1003.43
2023-04-19T07:29:48.794Z,1003.41
2023-04-19T07:30:48.884Z,1003.38
2023-04-19T07:31:48.889Z,1003.42
2023-04-19T07:32:49.219Z,1003.32
2023-04-19T07:33:48.899Z,1003.30
2023-04-19T07:34:48.886Z,1003.25
2023-04-19T07:35:48.987Z,1003.31
2023-04-19T07:36:49.617Z,1003.31
2023-04-19T07:37:48.683Z,1003.30
2023-04-19T07:38:48.732Z,1003.31
2023-04-19T07:39:48.776Z,1003.36
2023-04-19T07:40:49.151Z,1003.30
2023-04-19T07:41:48.804Z,1003.35
2023-04-19T07:42:48.722Z,1003.34
2023-04-19T07:43:48.642Z,1003.35
2023-04-19T07:44:48.636Z,1003.35
2023-04-19T07:45:48.631Z,1003.38
2023-04-19T07:46:48.680Z,1003.37
2023-04-19T07:47:48.997Z,1003.33
2023-04-19T07:48:48.586Z,1003.31
2023-04-19T07:49:48.590Z,1003.29
2023-04-19T07:50:48.578Z,1003.30
2023-04-19T07:51:48.489Z,1003.28
2023-04-19T07:52:48.748Z,1003.30
2023-04-19T07:53:48.638Z,1003.28
2023-04-19T07:54:48.520Z,1003.33
2023-04-19T07:55:48.570Z,1003.31
2023-04-19T07:56:48.743Z,1003.27
2023-04-19T07:57:48.507Z,1003.31
2023-04-19T07:58:56.497Z,1003.34
2023-04-19T07:59:49.822Z,1003.32
2023-04-19T08:00:48.665Z,1003.41
2023-04-19T08:01:48.766Z,1003.28
2023-04-19T08:02:51.100Z,1003.36
2023-04-19T08:03:49.619Z,1003.30
2023-04-19T08:04:48.948Z,1003.33
2023-04-19T08:05:48.604Z,1003.33
2023-04-19T08:06:48.531Z,1003.33
2023-04-19T08:07:48.348Z,1003.36
2023-04-19T08:08:49.775Z,1003.32
2023-04-19T08:09:48.722Z,1003.31
2023-04-19T08:10:48.670Z,1003.30
2023-04-19T08:11:48.306Z,1003.29
2023-04-19T08:13:03.545Z,1003.29
2023-04-19T08:14:02.849Z,1003.29
2023-04-19T08:14:59.942Z,1003.24
2023-04-19T08:16:27.113Z,1003.27
2023-04-19T08:17:14.453Z,1003.33
2023-04-19T08:17:50.675Z,1003.31
2023-04-19T08:18:48.461Z,1003.27
2023-04-19T08:19:48.461Z,1003.32
2023-04-19T08:20:48.318Z,1003.31
2023-04-19T08:21:48.255Z,1003.25
2023-04-19T08:22:48.325Z,1003.28
2023-04-19T08:23:48.993Z,1003.26
2023-04-19T08:24:49.280Z,1003.24
2023-04-19T08:25:48.399Z,1003.23
2023-04-19T08:26:48.937Z,1003.18
2023-04-19T08:27:48.375Z,1003.13
2023-04-19T08:28:48.202Z,1003.06
2023-04-19T08:29:48.291Z,1003.08
2023-04-19T08:30:48.476Z,1003.16
2023-04-19T08:31:48.152Z,1003.14
2023-04-19T08:32:48.136Z,1003.07
2023-04-19T08:33:48.079Z,1003.14
2023-04-19T08:34:48.112Z,1003.05
2023-04-19T08:35:48.267Z,1003.11
2023-04-19T08:36:55.947Z,1003.10
2023-04-19T08:37:50.566Z,1003.07
2023-04-19T08:38:54.973Z,1003.06
2023-04-19T08:39:49.133Z,1003.02
2023-04-19T08:40:48.093Z,1003.08
2023-04-19T08:41:52.865Z,1003.10
2023-04-19T08:42:50.090Z,1003.06
2023-04-19T08:43:48.058Z,1003.08
2023-04-19T08:45:06.359Z,1003.13
2023-04-19T08:45:50.022Z,1003.08
2023-04-19T08:46:48.035Z,1003.06
2023-04-19T08:47:59.723Z,1003.06
2023-04-19T08:48:50.958Z,1003.06
2023-04-19T08:49:51.205Z,1003.05
2023-04-19T08:51:01.235Z,1003.01
2023-04-19T08:51:48.923Z,1003.08
2023-04-19T08:52:55.899Z,1003.04
2023-04-19T08:53:49.904Z,1003.04
2023-04-19T08:54:47.897Z,1003.02
2023-04-19T08:56:03.383Z,1003.02
2023-04-19T08:56:49.945Z,1002.96
2023-04-19T08:57:47.822Z,1003.05
2023-04-19T08:59:48.822Z,1002.98
2023-04-19T09:00:47.796Z,1003.01
2023-04-19T09:01:47.975Z,1002.93
2023-04-19T09:02:48.450Z,1002.91
2023-04-19T09:04:02.623Z,1002.99
2023-04-19T09:04:50.074Z,1002.88
2023-04-19T09:05:48.899Z,1002.94
2023-04-19T09:06:47.819Z,1002.88
2023-04-19T09:07:47.774Z,1002.84
2023-04-19T09:08:48.147Z,1002.84
2023-04-19T09:10:02.105Z,1002.82
2023-04-19T09:10:49.785Z,1002.81
2023-04-19T09:11:47.832Z,1002.83
2023-04-19T09:12:48.315Z,1002.85
2023-04-19T09:13:47.801Z,1002.86
2023-04-19T09:15:00.564Z,1002.83
2023-04-19T09:15:49.745Z,1002.79
2023-04-19T09:16:48.538Z,1002.80
2023-04-19T09:17:48.028Z,1002.80
2023-04-19T09:18:59.951Z,1002.76
2023-04-19T09:19:50.262Z,1002.75
2023-04-19T09:20:47.657Z,1002.78
2023-04-19T09:21:47.675Z,1002.72
2023-04-19T09:22:47.735Z,1002.61
2023-04-19T09:23:47.639Z,1002.69
2023-04-19T09:26:48.651Z,1002.61
2023-04-19T09:27:47.610Z,1002.67
2023-04-19T09:28:47.614Z,1002.63
2023-04-19T09:29:47.580Z,1002.59
2023-04-19T09:30:59.972Z,1002.68
2023-04-19T09:31:51.873Z,1002.56
2023-04-19T09:32:49.073Z,1002.61
2023-04-19T09:33:47.609Z,1002.55
2023-04-19T09:34:47.660Z,1002.54
2023-04-19T09:35:48.302Z,1002.61
2023-04-19T09:36:47.463Z,1002.55
2023-04-19T09:38:48.501Z,1002.56
2023-04-19T09:39:47.481Z,1002.53
2023-04-19T09:40:47.688Z,1002.55
2023-04-19T09:41:47.516Z,1002.49
2023-04-19T09:43:00.722Z,1002.43
2023-04-19T09:45:20.882Z,1002.48
2023-04-19T09:45:49.485Z,1002.45
2023-04-19T09:46:47.495Z,1002.46
2023-04-19T09:47:47.506Z,1002.51
2023-04-19T09:48:47.494Z,1002.45
2023-04-19T09:49:49.444Z,1002.39
2023-04-19T09:50:55.947Z,1002.46
2023-04-19T09:51:49.350Z,1002.49
2023-04-19T09:52:47.328Z,1002.51
2023-04-19T09:53:47.322Z,1002.48
2023-04-19T09:54:47.402Z,1002.50
2023-04-19T09:55:59.647Z,1002.43
2023-04-19T09:56:48.460Z,1002.43
2023-04-19T09:57:47.277Z,1002.35
2023-04-19T09:58:53.138Z,1002.43
2023-04-19T09:59:49.420Z,1002.41
2023-04-19T10:00:49.018Z,1002.39
2023-04-19T10:01:48.367Z,1002.39
2023-04-19T10:02:48.704Z,1002.39
2023-04-19T10:03:47.680Z,1002.38
2023-04-19T10:05:03.248Z,1002.40
2023-04-19T10:05:49.370Z,1002.32
2023-04-19T10:07:49.216Z,1002.37
2023-04-19T10:08:47.246Z,1002.32
2023-04-19T10:09:53.020Z,1002.32
2023-04-19T10:10:49.166Z,1002.27
2023-04-19T10:11:48.530Z,1002.33
2023-04-19T10:13:11.060Z,1002.27
2023-04-19T10:13:49.122Z,1002.26
2023-04-19T10:14:47.144Z,1002.22
2023-04-19T10:15:52.470Z,1002.30
2023-04-19T10:16:49.140Z,1002.21
2023-04-19T10:17:47.246Z,1002.22
2023-04-19T10:18:47.163Z,1002.18
2023-04-19T10:19:47.126Z,1002.25
2023-04-19T10:20:47.144Z,1002.13
2023-04-19T10:21:47.144Z,1002.12
2023-04-19T10:22:46.992Z,1002.20
2023-04-19T10:23:47.141Z,1002.15
2023-04-19T10:24:48.297Z,1002.13
2023-04-19T10:25:47.037Z,1002.06
2023-04-19T10:26:47.851Z,1002.08
2023-04-19T10:27:46.997Z,1002.14
2023-04-19T10:28:46.987Z,1002.04
2023-04-19T10:29:46.972Z,1002.01
2023-04-19T10:30:46.972Z,1001.96
2023-04-19T10:31:47.524Z,1001.97
2023-04-19T10:32:47.041Z,1001.93
2023-04-19T10:33:47.514Z,1001.94
2023-04-19T10:34:46.947Z,1001.99
2023-04-19T10:35:47.041Z,1002.02
2023-04-19T10:36:46.923Z,1001.92
2023-04-19T10:37:46.865Z,1001.93
2023-04-19T10:38:47.049Z,1001.92
2023-04-19T10:39:46.849Z,1001.99
2023-04-19T10:40:46.891Z,1001.82
2023-04-19T10:41:46.804Z,1001.84
2023-04-19T10:42:46.973Z,1001.77
2023-04-19T10:43:46.857Z,1001.89
2023-04-19T10:44:46.814Z,1001.83
2023-04-19T10:45:46.787Z,1001.87
2023-04-19T10:46:46.848Z,1001.80
2023-04-19T10:47:46.851Z,1001.81
2023-04-19T10:48:46.805Z,1001.85
2023-04-19T10:49:46.925Z,1001.90
2023-04-19T10:50:46.778Z,1001.83
2023-04-19T10:51:46.881Z,1001.79
2023-04-19T10:52:46.737Z,1001.74
2023-04-19T10:53:46.915Z,1001.75
2023-04-19T10:54:46.996Z,1001.70
2023-04-19T10:55:46.723Z,1001.69
2023-04-19T10:56:46.828Z,1001.63
2023-04-19T10:57:46.682Z,1001.66
2023-04-19T10:58:48.478Z,1001.62
2023-04-19T10:59:46.771Z,1001.61
2023-04-19T11:00:46.633Z,1001.60
2023-04-19T11:01:46.963Z,1001.60
2023-04-19T11:02:46.845Z,1001.61
2023-04-19T11:03:46.975Z,1001.54
2023-04-19T11:04:46.658Z,1001.47
2023-04-19T11:05:47.352Z,1001.42
2023-04-19T11:06:46.635Z,1001.38
2023-04-19T11:07:46.586Z,1001.53
2023-04-19T11:08:46.637Z,1001.43
2023-04-19T11:09:46.595Z,1001.44
2023-04-19T11:10:46.679Z,1001.49
2023-04-19T11:11:46.538Z,1001.33
2023-04-19T11:12:46.565Z,1001.37
2023-04-19T11:13:46.517Z,1001.32
2023-04-19T11:14:46.588Z,1001.28
2023-04-19T11:15:46.522Z,1001.26
2023-04-19T11:16:46.672Z,1001.31
2023-04-19T11:17:46.555Z,1001.26
2023-04-19T11:18:46.552Z,1001.26
2023-04-19T11:19:47.316Z,1001.15
2023-04-19T11:20:46.463Z,1001.04
2023-04-19T11:21:46.454Z,1001.13
2023-04-19T11:22:46.507Z,1001.11
2023-04-19T11:23:46.499Z,1001.18
2023-04-19T11:24:47.383Z,1001.10
2023-04-19T11:25:46.472Z,1001.11
2023-04-19T11:26:46.439Z,1001.05
2023-04-19T11:27:46.515Z,1001.06
2023-04-19T11:28:46.346Z,1001.06
2023-04-19T11:29:46.384Z,1001.06
2023-04-19T11:30:46.448Z,1001.00
2023-04-19T11:31:47.119Z,1001.09
2023-04-19T11:32:46.321Z,1001.08
2023-04-19T11:33:46.413Z,1001.02
2023-04-19T11:34:46.374Z,1001.05
2023-04-19T11:35:46.511Z,1001.09
2023-04-19T11:36:46.267Z,1001.03
2023-04-19T11:37:46.259Z,1001.03
2023-04-19T11:38:46.270Z,1000.97
2023-04-19T11:39:46.301Z,1001.03
2023-04-19T11:40:46.237Z,1000.96
2023-04-19T11:41:46.306Z,1000.93
2023-04-19T11:46:29.059Z,1000.86
2023-04-19T11:47:24.973Z,1000.89
2023-04-19T11:48:24.940Z,1000.86
2023-04-19T11:49:24.996Z,1000.91
2023-04-19T11:50:24.936Z,1000.92
2023-04-19T11:51:26.283Z,1000.95
2023-04-19T11:52:26.184Z,1000.97
2023-04-19T11:53:26.087Z,1000.88
2023-04-19T11:54:26.060Z,1000.83
2023-04-19T11:55:26.075Z,1000.78
2023-04-19T11:56:26.028Z,1000.74
2023-04-19T11:57:26.095Z,1000.73
2023-04-19T11:58:26.122Z,1000.73
2023-04-19T11:59:27.173Z,1000.74
2023-04-19T12:00:26.040Z,1000.76
2023-04-19T12:01:26.028Z,1000.75
2023-04-19T12:02:26.183Z,1000.81
2023-04-19T12:03:26.698Z,1000.74
2023-04-19T12:04:27.155Z,1000.73
2023-04-19T12:05:26.329Z,1000.65
2023-04-19T12:06:26.017Z,1000.66
2023-04-19T12:07:26.101Z,1000.72
2023-04-19T12:08:26.130Z,1000.77
2023-04-19T12:09:26.004Z,1000.70
2023-04-19T12:10:26.052Z,1000.73
2023-04-19T12:11:25.977Z,1000.74
2023-04-19T12:12:25.918Z,1000.73
2023-04-19T12:13:25.923Z,1000.72
2023-04-19T12:14:25.914Z,1000.75
2023-04-19T12:15:27.558Z,1000.75
2023-04-19T12:16:26.881Z,1000.76
2023-04-19T12:17:25.871Z,1000.74
2023-04-19T12:18:25.929Z,1000.70
2023-04-19T12:19:25.882Z,1000.70
2023-04-19T12:20:25.867Z,1000.70
2023-04-19T12:21:25.895Z,1000.54
2023-04-19T12:22:25.894Z,1000.55
2023-04-19T12:23:25.829Z,1000.58
2023-04-19T12:24:26.014Z,1000.57
2023-04-19T12:25:25.907Z,1000.59
2023-04-19T12:26:25.775Z,1000.72
2023-04-19T12:27:26.316Z,1000.66
2023-04-19T12:28:25.764Z,1000.63
2023-04-19T12:29:25.829Z,1000.58
2023-04-19T12:30:25.724Z,1000.66
2023-04-19T12:31:25.848Z,1000.53
2023-04-19T12:32:25.736Z,1000.52
2023-04-19T12:33:25.668Z,1000.51
2023-04-19T12:34:25.737Z,1000.46
2023-04-19T12:35:25.715Z,1000.51
2023-04-19T12:36:25.812Z,1000.53
2023-04-19T12:37:25.627Z,1000.51